Airfield :
LOGIN :

Register | Disclaimer

   EN    FR    IT 

 










Legend :    VFR   Marginal VFR   IFR   Intensive IFR   Very Intensive IFR
Visi :
Ceiling :
>= 8 km
>= 3000ft
5 to 8 km
1000 to 3000 ft
1500m to 5 km
500 to 1000 ft
800 to 1500m
200 to 500 ft
< 800m
< 200 ft
Symbols :   Thunderstorms  Fog  Heavy snow  Heavy precipitations  Wind > 20 kt
SIGMETs :     Misc.  Thunderstorms  Icing  Turbulence  Mountain Waves  Volcanic Ashes






- Airport Elevation : 36 ft
- IATA code : LTQ


LFAT - Le Touquet

CURRENT METAR :
  • 141730Z AUTO 11008KT 070V140 7000 TSRA ///CB 18/16 Q1001 TEMPO VRB25G45KT 2000 TSRAGR

EXPIRED METARs :
  • 141700Z AUTO 13005KT 9999 RA VCTS ///CB 18/17 Q1002 TEMPO VRB25G45KT 2000 TSRAGR
  • 141630Z AUTO 14004KT CAVOK 18/16 Q1002 TEMPO VRB25G45KT 2000 TSRAGR SCT015 BKN030CB
  • 141600Z AUTO 14006KT 9999 FEW030 SCT130 BKN150 19/16 Q1002 TEMPO 4000 SHRA BKN060TCU
  • 141530Z AUTO 14007KT 9999 FEW040/// OVC110/// ///TCU 20/16 Q1003 TEMPO 4000 SHRA
  • 141500Z AUTO 13010KT 9999 FEW028/// BKN110/// OVC130/// ///TCU 20/16 Q1002 TEMPO 4000 SHRA

TAF TAF LFAT
Valid from the 14 at 15:00 until the 15 at 00:00 UTC


141400Z 1415/1424 15010KT CAVOK
TEMPO 1415/1421 4000 SHRA BKN060TCU
PROB40
TEMPO 1418/1420 VRB25G45KT 2000 TSRAGR SCT015 BKN030CB
FM142100 22010KT 9999 BKN020
TEMPO 1421/1424 4000 SHRA BKN012
ATIS : +33 3 21 06 62 84



MET'MAP, your aeronautical weather chart ! - Copyright ORBIFLY December 2007 - Disclaimer

ORBIFLY MET'MAP TEAM :

Programming & Development : Alexandra Zaïnal
Concept & Development : Baudouin d'Aumeries
Co-Development & Prog : Marc-Olivier Méhu
Technical & hardware support : Manuel Goepfert

Contact : metmap@orbifly.com




SOURCES & CREDITS :

   NOAA